createdAt,value
2023-03-24T00:02:24.656Z,4.10
2023-03-24T00:04:53.216Z,3.47
2023-03-24T00:07:19.605Z,3.67
2023-03-24T00:09:46.246Z,4.28
2023-03-24T00:12:14.017Z,3.50
2023-03-24T00:14:41.141Z,4.10
2023-03-24T00:17:13.749Z,3.63
2023-03-24T00:19:41.002Z,3.40
2023-03-24T00:22:14.143Z,3.40
2023-03-24T00:24:41.924Z,3.15
2023-03-24T00:27:08.505Z,3.45
2023-03-24T00:29:36.215Z,3.58
2023-03-24T00:32:02.617Z,3.35
2023-03-24T00:34:29.071Z,2.97
2023-03-24T00:36:55.530Z,3.60
2023-03-24T00:39:21.924Z,3.33
2023-03-24T00:41:48.783Z,3.47
2023-03-24T00:44:19.134Z,3.17
2023-03-24T00:46:56.091Z,3.10
2023-03-24T00:49:44.627Z,3.20
2023-03-24T00:52:22.771Z,2.90
2023-03-24T00:54:58.146Z,2.92
2023-03-24T00:57:25.874Z,2.92
2023-03-24T00:59:54.598Z,3.53
2023-03-24T01:02:24.770Z,2.50
2023-03-24T01:04:56.463Z,3.00
2023-03-24T01:07:24.429Z,3.10
2023-03-24T01:10:00.220Z,3.35
2023-03-24T01:12:36.846Z,2.72
2023-03-24T01:15:08.107Z,2.83
2023-03-24T01:17:34.636Z,3.00
2023-03-24T01:20:07.439Z,3.25
2023-03-24T01:22:37.571Z,2.85
2023-03-24T01:25:05.072Z,2.93
2023-03-24T01:27:31.945Z,3.65
2023-03-24T01:30:00.437Z,3.25
2023-03-24T01:32:26.949Z,3.20
2023-03-24T01:34:53.617Z,3.35
2023-03-24T01:37:20.295Z,3.20
2023-03-24T01:39:46.718Z,2.83
2023-03-24T01:42:19.859Z,2.83
2023-03-24T01:44:49.185Z,2.90
2023-03-24T01:47:17.174Z,3.05
2023-03-24T01:49:50.349Z,3.10
2023-03-24T01:52:36.601Z,2.78
2023-03-24T01:55:09.449Z,3.13
2023-03-24T01:57:40.487Z,3.17
2023-03-24T02:02:46.855Z,2.97
2023-03-24T02:05:19.334Z,3.03
2023-03-24T02:08:04.579Z,3.47
2023-03-24T02:10:33.770Z,2.83
2023-03-24T02:13:00.212Z,2.65
2023-03-24T02:15:29.821Z,3.08
2023-03-24T02:18:18.417Z,2.70
2023-03-24T02:21:07.018Z,2.90
2023-03-24T02:24:11.330Z,2.92
2023-03-24T02:26:48.144Z,2.95
2023-03-24T02:29:47.738Z,2.83
2023-03-24T02:32:44.546Z,3.53
2023-03-24T02:35:36.657Z,2.90
2023-03-24T02:38:34.417Z,3.33
2023-03-24T02:41:22.032Z,3.35
2023-03-24T02:44:10.915Z,3.28
2023-03-24T02:46:46.821Z,3.42
2023-03-24T02:49:26.127Z,3.65
2023-03-24T02:52:00.843Z,3.17
2023-03-24T02:54:42.786Z,2.80
2023-03-24T02:57:30.952Z,3.63
2023-03-24T03:00:32.442Z,2.92
2023-03-24T03:03:31.630Z,3.80
2023-03-24T03:06:03.442Z,3.67
2023-03-24T03:08:33.892Z,3.28
2023-03-24T03:11:03.750Z,3.42
2023-03-24T03:13:38.278Z,3.70
2023-03-24T03:16:10.052Z,3.50
2023-03-24T03:18:51.776Z,3.70
2023-03-24T03:21:22.536Z,3.63
2023-03-24T03:23:58.104Z,3.80
2023-03-24T03:26:28.506Z,3.20
2023-03-24T03:29:00.628Z,3.60
2023-03-24T03:31:34.538Z,3.50
2023-03-24T03:34:37.581Z,3.88
2023-03-24T03:37:29.186Z,3.58
2023-03-24T03:39:59.906Z,3.78
2023-03-24T03:42:27.044Z,3.65
2023-03-24T03:44:54.050Z,4.40
2023-03-24T03:47:22.990Z,4.15
2023-03-24T03:49:50.800Z,4.43
2023-03-24T03:52:17.775Z,4.55
2023-03-24T03:54:45.600Z,3.83
2023-03-24T03:57:13.875Z,5.32
2023-03-24T03:59:58.773Z,4.43
2023-03-24T04:02:42.975Z,4.53
2023-03-24T04:05:32.841Z,4.20
2023-03-24T04:08:35.032Z,4.47
2023-03-24T04:11:43.095Z,4.00
2023-03-24T04:14:49.854Z,4.65
2023-03-24T04:17:49.746Z,4.88
2023-03-24T04:20:46.994Z,5.13
2023-03-24T04:23:27.815Z,5.03
2023-03-24T04:26:10.393Z,4.32
2023-03-24T04:28:47.930Z,5.00
2023-03-24T04:31:26.570Z,4.70
2023-03-24T04:34:03.142Z,5.22
2023-03-24T04:36:50.212Z,4.88
2023-03-24T04:42:07.321Z,4.63
2023-03-24T04:44:34.289Z,4.53
2023-03-24T04:47:27.919Z,5.40
2023-03-24T04:50:11.380Z,5.10
2023-03-24T04:52:39.747Z,5.57
2023-03-24T04:55:32.258Z,4.82
2023-03-24T04:57:59.135Z,5.10
2023-03-24T05:00:25.890Z,5.38
2023-03-24T05:02:52.406Z,5.57
2023-03-24T05:05:24.888Z,5.35
2023-03-24T05:07:51.380Z,4.65
2023-03-24T05:10:21.775Z,5.10
2023-03-24T05:12:52.910Z,5.22
2023-03-24T05:15:19.289Z,5.55
2023-03-24T05:17:49.255Z,5.03
2023-03-24T05:20:16.437Z,5.28
2023-03-24T05:25:13.736Z,5.28
2023-03-24T05:27:40.363Z,5.90
2023-03-24T05:30:17.601Z,5.35
2023-03-24T05:32:46.120Z,4.95
2023-03-24T05:35:14.078Z,5.60
2023-03-24T05:37:42.352Z,5.18
2023-03-24T05:40:09.330Z,5.30
2023-03-24T05:42:45.470Z,5.13
2023-03-24T05:45:13.914Z,5.45
2023-03-24T05:47:40.710Z,5.60
2023-03-24T05:50:07.741Z,5.35
2023-03-24T05:52:35.844Z,5.10
2023-03-24T05:55:27.764Z,5.03
2023-03-24T05:58:03.917Z,5.15
2023-03-24T06:00:48.026Z,4.85
2023-03-24T06:03:23.332Z,4.28
2023-03-24T06:06:00.364Z,4.82
2023-03-24T06:08:28.602Z,5.00
2023-03-24T06:11:02.239Z,4.75
2023-03-24T06:13:31.097Z,4.30
2023-03-24T06:15:59.889Z,4.60
2023-03-24T06:18:40.400Z,3.83
2023-03-24T06:21:18.495Z,4.22
2023-03-24T06:23:46.183Z,4.18
2023-03-24T06:26:16.629Z,4.18
2023-03-24T06:28:51.886Z,4.22
2023-03-24T06:31:21.197Z,4.28
2023-03-24T06:33:52.107Z,4.20
2023-03-24T06:36:18.829Z,5.57
2023-03-24T06:38:46.146Z,4.85
2023-03-24T06:41:16.770Z,4.97
2023-03-24T06:43:43.432Z,5.28
2023-03-24T06:46:10.871Z,5.28
2023-03-24T06:48:40.404Z,6.60
2023-03-24T06:51:07.936Z,5.10
2023-03-24T06:53:34.619Z,5.55
2023-03-24T06:56:01.760Z,5.15
2023-03-24T06:58:35.120Z,5.20
2023-03-24T07:01:07.000Z,5.32
2023-03-24T07:03:54.338Z,4.85
2023-03-24T07:06:49.879Z,4.22
2023-03-24T07:09:27.000Z,5.45
2023-03-24T07:11:53.416Z,4.90
2023-03-24T07:14:21.226Z,4.82
2023-03-24T07:16:48.865Z,5.07
2023-03-24T07:19:32.351Z,5.13
2023-03-24T07:22:24.969Z,5.18
2023-03-24T07:25:14.208Z,4.90
2023-03-24T07:27:48.301Z,4.38
2023-03-24T07:30:15.449Z,4.28
2023-03-24T07:32:44.258Z,4.97
2023-03-24T07:35:12.666Z,3.92
2023-03-24T07:37:39.457Z,4.65
2023-03-24T07:40:09.348Z,4.88
2023-03-24T07:42:36.422Z,4.40
2023-03-24T07:45:24.406Z,4.45
2023-03-24T07:47:50.984Z,4.00
2023-03-24T07:50:17.679Z,4.50
2023-03-24T07:52:50.389Z,4.32
2023-03-24T07:55:19.918Z,5.03
2023-03-24T07:58:00.211Z,5.20
2023-03-24T08:00:29.133Z,5.68
2023-03-24T08:03:25.459Z,5.10
2023-03-24T08:06:17.811Z,4.65
2023-03-24T08:08:51.419Z,5.30
2023-03-24T08:11:17.890Z,5.07
2023-03-24T08:13:44.343Z,5.03
2023-03-24T08:16:10.794Z,4.97
2023-03-24T08:18:37.238Z,4.70
2023-03-24T08:21:03.736Z,4.75
2023-03-24T08:23:30.633Z,4.68
2023-03-24T08:25:57.289Z,4.60
2023-03-24T08:28:23.752Z,4.40
2023-03-24T08:30:50.502Z,5.13
2023-03-24T08:33:17.420Z,4.90
2023-03-24T08:35:45.975Z,4.78
2023-03-24T08:38:12.784Z,4.68
2023-03-24T08:40:42.183Z,4.82
2023-03-24T08:43:12.793Z,5.00
2023-03-24T08:45:39.308Z,4.70
2023-03-24T08:48:08.800Z,4.60
2023-03-24T08:50:40.494Z,4.55
2023-03-24T08:53:07.462Z,4.78
2023-03-24T08:55:34.205Z,4.38
2023-03-24T08:58:01.277Z,4.53
2023-03-24T09:00:28.988Z,4.45
2023-03-24T09:02:56.793Z,4.63
2023-03-24T09:05:40.915Z,4.22
2023-03-24T09:08:11.259Z,4.70
2023-03-24T09:10:39.194Z,4.50
2023-03-24T09:13:05.640Z,3.70
2023-03-24T09:15:33.312Z,4.35
2023-03-24T09:17:59.815Z,4.13
2023-03-24T09:20:26.373Z,4.78
2023-03-24T09:22:52.819Z,3.88
2023-03-24T09:25:20.682Z,4.45
2023-03-24T09:27:47.496Z,4.07
2023-03-24T09:30:16.679Z,4.05
2023-03-24T09:32:45.071Z,4.32
2023-03-24T09:35:11.835Z,4.22
2023-03-24T09:37:38.970Z,3.97
2023-03-24T09:40:06.759Z,4.28
2023-03-24T09:42:37.600Z,4.15
2023-03-24T09:45:15.886Z,4.03
2023-03-24T09:47:52.863Z,3.95
2023-03-24T09:50:29.632Z,3.78
2023-03-24T09:53:09.398Z,4.20
2023-03-24T09:55:39.311Z,3.92
2023-03-24T09:58:08.742Z,4.20
2023-03-24T10:00:36.917Z,3.75
2023-03-24T10:03:21.101Z,3.58
2023-03-24T10:06:05.190Z,2.85
2023-03-24T10:08:34.316Z,3.45
2023-03-24T10:11:28.675Z,3.47
2023-03-24T10:14:15.393Z,3.15
2023-03-24T10:16:49.523Z,2.90
2023-03-24T10:19:43.627Z,3.47
2023-03-24T10:22:30.347Z,3.50
2023-03-24T10:25:15.798Z,2.95
2023-03-24T10:27:45.752Z,4.13
2023-03-24T10:30:23.661Z,3.65
2023-03-24T10:32:50.247Z,3.22
2023-03-24T10:35:27.503Z,3.20
2023-03-24T10:37:57.144Z,3.33
2023-03-24T10:40:33.356Z,3.45
2023-03-24T10:43:06.959Z,3.25
2023-03-24T10:45:38.173Z,3.47
2023-03-24T10:48:05.308Z,3.53
2023-03-24T10:50:33.612Z,3.72
2023-03-24T10:53:00.111Z,3.47
2023-03-24T10:55:32.117Z,3.28
2023-03-24T10:57:59.812Z,3.33
2023-03-24T11:00:29.811Z,4.10
2023-03-24T11:03:03.900Z,3.60
2023-03-24T11:05:36.351Z,3.47
2023-03-24T11:08:36.024Z,3.47
2023-03-24T11:11:33.102Z,3.45
2023-03-24T11:14:02.142Z,3.42
2023-03-24T11:16:36.774Z,3.67
2023-03-24T11:19:05.859Z,3.10
2023-03-24T11:21:36.894Z,3.08
2023-03-24T11:24:10.826Z,3.05
2023-03-24T11:26:38.889Z,2.95
2023-03-24T11:29:09.665Z,3.22
2023-03-24T11:31:39.273Z,3.45
2023-03-24T11:34:16.782Z,3.05
2023-03-24T11:36:53.191Z,2.55
2023-03-24T11:39:25.001Z,3.00
2023-03-24T11:42:01.703Z,2.75
2023-03-24T11:44:52.024Z,3.28
2023-03-24T11:47:30.609Z,3.07
2023-03-24T11:50:09.160Z,3.40
2023-03-24T11:52:50.822Z,3.60
2023-03-24T11:55:21.161Z,2.90
2023-03-24T11:58:27.789Z,2.58
2023-03-24T12:01:07.820Z,3.05
2023-03-24T12:03:45.571Z,2.83
2023-03-24T12:06:38.238Z,2.97
2023-03-24T12:09:14.457Z,2.75
2023-03-24T12:11:59.597Z,2.90
2023-03-24T12:14:51.084Z,3.03
2023-03-24T12:17:23.475Z,3.10
2023-03-24T12:20:14.795Z,2.65
2023-03-24T12:22:50.930Z,3.10
2023-03-24T12:25:25.417Z,2.58
2023-03-24T12:28:09.956Z,2.95
2023-03-24T12:31:03.275Z,2.80
2023-03-24T12:33:41.867Z,2.58
2023-03-24T12:36:37.132Z,2.47
2023-03-24T12:39:23.291Z,3.10
2023-03-24T12:41:58.490Z,3.13
2023-03-24T12:44:54.291Z,2.30
2023-03-24T12:47:38.408Z,2.47
2023-03-24T12:50:20.748Z,2.80
2023-03-24T12:53:12.748Z,2.40
2023-03-24T12:55:49.065Z,3.35
2023-03-24T12:58:26.095Z,2.50
2023-03-24T13:01:00.452Z,2.22
2023-03-24T13:03:35.056Z,2.78
2023-03-24T13:06:29.295Z,2.53
2023-03-24T13:09:13.778Z,2.80
2023-03-24T13:11:57.151Z,2.50
2023-03-24T13:14:29.739Z,2.33
2023-03-24T13:17:03.512Z,2.50
2023-03-24T13:19:32.100Z,2.45
2023-03-24T13:21:59.180Z,2.47
2023-03-24T13:24:26.711Z,2.65
2023-03-24T13:27:00.498Z,2.42
2023-03-24T13:29:49.537Z,1.60
2023-03-24T13:32:24.356Z,1.92
2023-03-24T13:35:05.939Z,1.90
2023-03-24T13:37:52.848Z,2.08
2023-03-24T13:40:27.985Z,2.13
2023-03-24T13:42:57.826Z,2.10
2023-03-24T13:45:34.928Z,2.85
2023-03-24T13:48:10.407Z,2.05
2023-03-24T13:50:47.735Z,2.30
2023-03-24T13:53:15.429Z,2.38
2023-03-24T13:55:50.412Z,2.30
2023-03-24T13:58:26.145Z,2.83
2023-03-24T14:01:04.628Z,3.80
2023-03-24T14:03:33.344Z,3.13
2023-03-24T14:06:02.492Z,2.58
2023-03-24T14:08:55.330Z,2.65
2023-03-24T14:11:42.698Z,2.25
2023-03-24T14:14:15.402Z,2.22
2023-03-24T14:17:01.848Z,2.90
2023-03-24T14:19:42.159Z,2.33
2023-03-24T14:22:30.751Z,3.03
2023-03-24T14:25:00.580Z,2.00
2023-03-24T14:27:40.879Z,2.20
2023-03-24T14:30:10.994Z,1.95
2023-03-24T14:32:45.977Z,2.20
2023-03-24T14:35:46.576Z,2.28
2023-03-24T14:38:16.218Z,2.28
2023-03-24T14:40:51.954Z,2.30
2023-03-24T14:43:30.027Z,1.95
2023-03-24T14:45:57.830Z,2.03
2023-03-24T14:48:32.269Z,1.85
2023-03-24T14:51:06.075Z,1.65
2023-03-24T14:53:36.477Z,1.83
2023-03-24T14:56:14.626Z,2.38
2023-03-24T14:58:44.040Z,2.15
2023-03-24T15:01:11.967Z,1.92
2023-03-24T15:03:57.976Z,1.58
2023-03-24T15:06:24.427Z,1.63
2023-03-24T15:08:53.489Z,1.70
2023-03-24T15:11:24.319Z,1.85
2023-03-24T15:16:25.056Z,2.38
2023-03-24T15:22:00.549Z,2.10
2023-03-24T15:24:42.971Z,1.90
2023-03-24T15:27:21.452Z,1.50
2023-03-24T15:29:53.982Z,2.40
2023-03-24T15:32:23.025Z,1.63
2023-03-24T15:34:58.653Z,2.38
2023-03-24T15:37:50.779Z,1.80
2023-03-24T15:40:25.982Z,1.75
2023-03-24T15:42:54.899Z,2.38
2023-03-24T15:45:32.655Z,2.42
2023-03-24T15:48:07.485Z,1.98
2023-03-24T15:50:40.053Z,2.35
2023-03-24T15:53:24.678Z,2.25
2023-03-24T15:56:24.742Z,2.75
2023-03-24T15:58:54.967Z,2.90
2023-03-24T16:01:31.100Z,2.30
2023-03-24T16:04:00.652Z,2.65
2023-03-24T16:06:33.620Z,2.72
2023-03-24T16:09:01.689Z,2.72
2023-03-24T16:11:28.929Z,2.53
2023-03-24T16:13:56.388Z,2.95
2023-03-24T16:16:26.525Z,3.42
2023-03-24T16:18:54.961Z,2.97
2023-03-24T16:21:26.659Z,3.13
2023-03-24T16:23:55.299Z,3.53
2023-03-24T16:26:24.999Z,3.75
2023-03-24T16:28:52.775Z,2.80
2023-03-24T16:31:30.779Z,2.13
2023-03-24T16:33:59.950Z,2.67
2023-03-24T16:36:29.714Z,2.42
2023-03-24T16:38:58.666Z,2.20
2023-03-24T16:41:25.799Z,2.58
2023-03-24T16:43:53.093Z,2.00
2023-03-24T16:46:25.854Z,2.42
2023-03-24T16:48:53.137Z,2.90
2023-03-24T16:51:19.579Z,2.50
2023-03-24T16:53:46.826Z,2.53
2023-03-24T16:56:16.298Z,2.88
2023-03-24T16:58:42.742Z,2.40
2023-03-24T17:01:33.703Z,2.38
2023-03-24T17:04:10.550Z,3.60
2023-03-24T17:06:39.497Z,5.88
2023-03-24T17:09:06.658Z,8.43
2023-03-24T17:11:36.222Z,12.70
2023-03-24T17:14:08.454Z,27.08
2023-03-24T17:16:36.588Z,7.53
2023-03-24T17:19:04.513Z,4.97
2023-03-24T17:21:33.725Z,3.63
2023-03-24T17:24:00.595Z,3.38
2023-03-24T17:26:26.993Z,2.97
2023-03-24T17:28:53.391Z,5.95
2023-03-24T17:31:19.890Z,6.68
2023-03-24T17:33:46.336Z,3.83
2023-03-24T17:36:16.864Z,4.18
2023-03-24T17:38:47.052Z,4.18
2023-03-24T17:41:13.716Z,6.93
2023-03-24T17:43:40.558Z,7.28
2023-03-24T17:46:06.993Z,9.32
2023-03-24T17:48:33.896Z,6.93
2023-03-24T17:51:00.427Z,7.38
2023-03-24T17:53:26.906Z,6.50
2023-03-24T17:55:56.702Z,5.72
2023-03-24T17:58:24.188Z,5.57
2023-03-24T18:00:50.980Z,5.78
2023-03-24T18:03:17.696Z,5.03
2023-03-24T18:05:44.907Z,5.70
2023-03-24T18:08:12.307Z,6.00
2023-03-24T18:10:39.137Z,7.03
2023-03-24T18:13:06.735Z,10.30
2023-03-24T18:15:34.658Z,13.43
2023-03-24T18:18:01.172Z,12.55
2023-03-24T18:20:27.755Z,10.80
2023-03-24T18:22:54.181Z,16.35
2023-03-24T18:25:21.030Z,35.10
2023-03-24T18:27:47.418Z,13.00
2023-03-24T18:30:14.692Z,6.88
2023-03-24T18:32:41.182Z,5.55
2023-03-24T18:35:09.896Z,6.07
2023-03-24T18:37:36.360Z,5.78
2023-03-24T18:40:08.443Z,6.47
2023-03-24T18:42:35.689Z,6.95
2023-03-24T18:45:02.083Z,7.50
2023-03-24T18:47:28.505Z,5.85
2023-03-24T18:49:54.910Z,5.25
2023-03-24T18:52:21.363Z,5.72
2023-03-24T18:54:49.037Z,5.57
2023-03-24T18:57:16.418Z,6.70
2023-03-24T18:59:42.929Z,6.47
2023-03-24T19:02:11.133Z,6.05
2023-03-24T19:04:38.085Z,5.90
2023-03-24T19:07:08.040Z,7.47
2023-03-24T19:09:34.577Z,8.20
2023-03-24T19:12:01.423Z,6.90
2023-03-24T19:14:28.550Z,5.88
2023-03-24T19:16:56.273Z,5.35
2023-03-24T19:19:22.678Z,4.45
2023-03-24T19:21:49.241Z,5.15
2023-03-24T19:24:15.757Z,3.83
2023-03-24T19:26:42.165Z,3.83
2023-03-24T19:29:08.563Z,4.97
2023-03-24T19:31:35.116Z,4.53
2023-03-24T19:34:01.599Z,5.70
2023-03-24T19:36:27.993Z,5.70
2023-03-24T19:38:54.403Z,7.13
2023-03-24T19:41:21.249Z,6.80
2023-03-24T19:43:47.658Z,5.82
2023-03-24T19:46:14.141Z,5.75
2023-03-24T19:48:40.576Z,5.68
2023-03-24T19:51:06.975Z,5.20
2023-03-24T19:53:33.520Z,4.35
2023-03-24T19:56:01.012Z,3.95
2023-03-24T19:58:27.614Z,3.85
2023-03-24T20:00:54.061Z,2.50
2023-03-24T20:03:20.911Z,2.60
2023-03-24T20:05:48.127Z,3.63
2023-03-24T20:08:15.421Z,2.00
2023-03-24T20:10:41.820Z,2.42
2023-03-24T20:13:09.097Z,2.83
2023-03-24T20:15:35.654Z,2.65
2023-03-24T20:18:02.395Z,3.20
2023-03-24T20:20:28.945Z,2.88
2023-03-24T20:22:55.639Z,2.40
2023-03-24T20:25:22.380Z,2.85
2023-03-24T20:27:48.843Z,2.15
2023-03-24T20:30:18.583Z,2.90
2023-03-24T20:32:45.360Z,3.10
2023-03-24T20:35:12.590Z,3.15
2023-03-24T20:37:39.034Z,3.53
2023-03-24T20:40:09.144Z,3.15
2023-03-24T20:42:35.545Z,2.80
2023-03-24T20:45:02.466Z,2.33
2023-03-24T20:47:28.960Z,2.63
2023-03-24T20:49:55.383Z,2.25
2023-03-24T20:52:23.225Z,2.55
2023-03-24T20:54:50.587Z,2.38
2023-03-24T20:57:17.681Z,2.35
2023-03-24T20:59:44.140Z,2.85
2023-03-24T21:02:12.070Z,2.25
2023-03-24T21:04:38.545Z,2.30
2023-03-24T21:07:04.957Z,2.17
2023-03-24T21:09:33.065Z,2.40
2023-03-24T21:12:00.851Z,2.30
2023-03-24T21:14:27.698Z,2.10
2023-03-24T21:16:54.133Z,2.90
2023-03-24T21:19:20.568Z,2.40
2023-03-24T21:21:49.404Z,2.97
2023-03-24T21:24:19.010Z,3.05
2023-03-24T21:26:46.282Z,2.83
2023-03-24T21:29:13.080Z,2.67
2023-03-24T21:31:41.634Z,2.67
2023-03-24T21:34:08.367Z,3.08
2023-03-24T21:36:38.100Z,2.65
2023-03-24T21:39:06.874Z,3.28
2023-03-24T21:41:33.675Z,2.75
2023-03-24T21:44:00.579Z,3.25
2023-03-24T21:46:27.873Z,2.60
2023-03-24T21:48:59.341Z,3.42
2023-03-24T21:51:30.618Z,3.08
2023-03-24T21:53:59.303Z,3.30
2023-03-24T21:56:25.865Z,3.30
2023-03-24T21:58:54.061Z,3.08
2023-03-24T22:01:20.968Z,5.63
2023-03-24T22:03:47.602Z,3.53
2023-03-24T22:06:14.485Z,4.10
2023-03-24T22:08:43.646Z,3.90
2023-03-24T22:11:11.263Z,3.60
2023-03-24T22:13:39.136Z,3.78
2023-03-24T22:16:06.817Z,3.67
2023-03-24T22:18:34.506Z,3.97
2023-03-24T22:21:04.220Z,3.25
2023-03-24T22:23:36.668Z,3.30
2023-03-24T22:26:11.563Z,4.15
2023-03-24T22:28:38.639Z,3.20
2023-03-24T22:31:10.989Z,3.35
2023-03-24T22:33:38.529Z,3.53
2023-03-24T22:36:05.571Z,3.42
2023-03-24T22:38:34.264Z,3.67
2023-03-24T22:41:06.861Z,3.40
2023-03-24T22:43:34.976Z,3.30
2023-03-24T22:46:01.563Z,3.78
2023-03-24T22:48:28.179Z,3.42
2023-03-24T22:50:54.600Z,3.05
2023-03-24T22:53:21.562Z,3.05
2023-03-24T22:55:48.763Z,3.25
2023-03-24T22:58:15.955Z,3.15
2023-03-24T23:00:43.925Z,4.65
2023-03-24T23:03:11.200Z,3.50
2023-03-24T23:05:41.673Z,3.22
2023-03-24T23:08:09.613Z,3.40
2023-03-24T23:10:36.746Z,3.30
2023-03-24T23:13:04.117Z,2.60
2023-03-24T23:15:31.874Z,3.00
2023-03-24T23:17:58.762Z,2.38
2023-03-24T23:20:25.715Z,2.58
2023-03-24T23:22:52.426Z,2.85
2023-03-24T23:25:19.098Z,2.47
2023-03-24T23:27:46.090Z,2.95
2023-03-24T23:30:13.976Z,2.50
2023-03-24T23:32:41.378Z,2.47
2023-03-24T23:35:09.122Z,3.10
2023-03-24T23:37:36.566Z,2.88
2023-03-24T23:40:09.706Z,2.70
2023-03-24T23:42:37.202Z,2.78
2023-03-24T23:45:05.126Z,2.25
2023-03-24T23:47:33.518Z,2.40
2023-03-24T23:50:01.159Z,2.33
2023-03-24T23:52:27.853Z,2.22
2023-03-24T23:54:54.371Z,2.55
2023-03-24T23:57:20.769Z,2.53
2023-03-24T23:59:49.459Z,2.15
